Dundee, Oregon
Current Conditions -  °F | °C
As of 1:53 PM on Friday 24 Oct 2014 (Local Time) from KMMV Reporting Station
Light Rain Light Rain  
Wind Chill: 12°   Ceiling: 7500
Heat Index: 12°   Visibility: 9mi
Dew Point: 10°   Wind: 7mph
Humidity: 86%   Direction: 340°NNW
Pressure: 29.9"   Gusts: NA
Location:  45.28°N, 123.01°W
Report Text: KMMV 242053Z AUTO 34006KT 9SM -RA BKN075 OVC090 12/10 A2990 RMK AO2 SLP126 P0001 60001 T01220100 58021
Loading
Personal Weather Stations






























Interactive Weather Map
Tropical Storm Tracking
New forecast layout! Learn more

10-Day Weather Forecast

Advertisements
Track Severe Weather on mobile